createdAt,value
2023-10-09T00:01:18.846Z,6.30
2023-10-09T00:03:54.280Z,6.10
2023-10-09T00:06:31.985Z,5.70
2023-10-09T00:09:18.186Z,5.40
2023-10-09T00:11:49.306Z,5.10
2023-10-09T00:14:20.119Z,5.70
2023-10-09T00:16:50.499Z,5.00
2023-10-09T00:19:31.449Z,5.80
2023-10-09T00:24:46.049Z,5.90
2023-10-09T00:27:16.173Z,5.20
2023-10-09T00:29:46.431Z,5.30
2023-10-09T00:32:28.049Z,5.90
2023-10-09T00:35:14.866Z,4.90
2023-10-09T00:37:46.133Z,5.50
2023-10-09T00:40:24.823Z,5.30
2023-10-09T00:42:57.120Z,5.40
2023-10-09T00:45:33.244Z,5.00
2023-10-09T00:48:04.061Z,5.60
2023-10-09T00:50:49.541Z,5.20
2023-10-09T00:53:20.300Z,5.40
2023-10-09T00:55:56.932Z,5.10
2023-10-09T00:58:27.967Z,5.20
2023-10-09T01:01:00.446Z,5.50
2023-10-09T01:03:34.680Z,5.40
2023-10-09T01:06:09.998Z,5.50
2023-10-09T01:08:41.564Z,4.80
2023-10-09T01:11:31.699Z,5.20
2023-10-09T01:14:21.737Z,6.20
2023-10-09T01:16:55.104Z,5.00
2023-10-09T01:19:28.918Z,5.20
2023-10-09T01:22:05.709Z,5.30
2023-10-09T01:24:40.161Z,4.90
2023-10-09T01:27:17.021Z,5.20
2023-10-09T01:29:49.253Z,5.40
2023-10-09T01:32:20.747Z,4.60
2023-10-09T01:34:51.350Z,5.30
2023-10-09T01:37:24.463Z,5.00
2023-10-09T01:39:59.576Z,5.20
2023-10-09T01:42:31.963Z,5.70
2023-10-09T01:45:17.912Z,5.40
2023-10-09T01:47:57.043Z,5.20
2023-10-09T01:50:28.107Z,5.90
2023-10-09T01:52:57.939Z,5.20
2023-10-09T01:55:35.978Z,5.90
2023-10-09T01:58:08.864Z,6.60
2023-10-09T02:00:44.823Z,5.70
2023-10-09T02:03:14.787Z,5.50
2023-10-09T02:05:46.395Z,5.90
2023-10-09T02:08:17.604Z,5.50
2023-10-09T02:10:50.073Z,5.80
2023-10-09T02:13:20.914Z,5.50
2023-10-09T02:15:54.864Z,5.60
2023-10-09T02:18:24.853Z,5.80
2023-10-09T02:21:05.967Z,5.60
2023-10-09T02:23:42.373Z,5.70
2023-10-09T02:26:34.552Z,6.70
2023-10-09T02:29:10.114Z,5.70
2023-10-09T02:31:44.682Z,5.60
2023-10-09T02:34:17.211Z,5.90
2023-10-09T02:36:58.580Z,5.40
2023-10-09T02:39:28.643Z,5.20
2023-10-09T02:42:08.287Z,6.00
2023-10-09T02:44:47.240Z,4.80
2023-10-09T02:47:30.914Z,5.30
2023-10-09T02:50:08.238Z,5.70
2023-10-09T02:52:44.519Z,5.70
2023-10-09T02:55:29.490Z,5.80
2023-10-09T02:58:09.134Z,5.50
2023-10-09T03:00:39.375Z,5.60
2023-10-09T03:03:11.704Z,5.60
2023-10-09T03:05:43.744Z,5.30
2023-10-09T03:08:13.719Z,5.60
2023-10-09T03:10:43.501Z,5.40
2023-10-09T03:13:15.984Z,5.80
2023-10-09T03:15:46.790Z,5.50
2023-10-09T03:18:16.759Z,6.00
2023-10-09T03:20:48.729Z,5.10
2023-10-09T03:23:19.238Z,5.50
2023-10-09T03:25:50.113Z,5.20
2023-10-09T03:28:19.987Z,5.20
2023-10-09T03:30:54.192Z,5.30
2023-10-09T03:33:24.589Z,5.10
2023-10-09T03:35:54.504Z,5.60
2023-10-09T03:38:24.397Z,5.50
2023-10-09T03:40:54.130Z,5.20
2023-10-09T03:43:24.563Z,5.30
2023-10-09T03:45:54.643Z,5.50
2023-10-09T03:48:27.685Z,5.60
2023-10-09T03:51:23.664Z,5.50
2023-10-09T03:53:54.106Z,6.10
2023-10-09T03:56:24.296Z,5.40
2023-10-09T03:58:54.721Z,5.40
2023-10-09T04:01:31.062Z,5.10
2023-10-09T04:04:04.820Z,5.30
2023-10-09T04:06:35.705Z,5.30
2023-10-09T04:09:22.235Z,5.10
2023-10-09T04:15:03.231Z,6.10
2023-10-09T04:17:36.275Z,5.80
2023-10-09T04:20:20.353Z,5.30
2023-10-09T04:22:52.595Z,5.00
2023-10-09T04:25:43.231Z,5.50
2023-10-09T04:28:15.609Z,6.60
2023-10-09T04:30:48.119Z,5.40
2023-10-09T04:33:30.567Z,5.50
2023-10-09T04:36:22.513Z,5.50
2023-10-09T04:39:07.080Z,5.60
2023-10-09T04:41:43.165Z,5.60
2023-10-09T04:44:18.938Z,5.40
2023-10-09T04:47:14.205Z,5.90
2023-10-09T04:49:51.300Z,6.10
2023-10-09T04:52:31.606Z,6.40
2023-10-09T04:55:07.937Z,5.00
2023-10-09T04:57:44.701Z,5.90
2023-10-09T05:00:26.632Z,5.60
2023-10-09T05:02:58.393Z,6.20
2023-10-09T05:05:45.399Z,6.40
2023-10-09T05:08:21.205Z,5.30
2023-10-09T05:11:01.704Z,6.90
2023-10-09T05:16:16.728Z,6.20
2023-10-09T05:19:08.616Z,6.10
2023-10-09T05:21:43.649Z,6.80
2023-10-09T05:24:15.035Z,5.60
2023-10-09T05:26:50.688Z,6.70
2023-10-09T05:29:33.853Z,6.50
2023-10-09T05:32:14.131Z,6.80
2023-10-09T05:35:00.310Z,6.50
2023-10-09T05:37:35.782Z,6.10
2023-10-09T05:40:17.088Z,6.00
2023-10-09T05:42:58.938Z,5.80
2023-10-09T05:45:48.669Z,6.60
2023-10-09T05:48:20.604Z,6.30
2023-10-09T05:51:13.767Z,6.60
2023-10-09T05:53:46.392Z,6.00
2023-10-09T05:56:35.102Z,6.70
2023-10-09T05:59:07.659Z,6.60
2023-10-09T06:01:56.290Z,6.80
2023-10-09T06:04:56.024Z,7.70
2023-10-09T06:07:42.301Z,6.90
2023-10-09T06:10:19.900Z,6.80
2023-10-09T06:12:58.611Z,6.70
2023-10-09T06:15:51.999Z,6.60
2023-10-09T06:18:33.692Z,8.10
2023-10-09T06:21:06.292Z,6.50
2023-10-09T06:23:54.755Z,6.70
2023-10-09T06:26:27.785Z,7.00
2023-10-09T06:29:16.337Z,7.40
2023-10-09T06:32:17.573Z,7.90
2023-10-09T06:34:57.965Z,6.10
2023-10-09T06:37:27.870Z,6.20
2023-10-09T06:39:59.043Z,6.50
2023-10-09T06:42:32.892Z,7.20
2023-10-09T06:45:10.873Z,6.60
2023-10-09T06:47:43.801Z,6.70
2023-10-09T06:50:23.206Z,7.10
2023-10-09T06:53:12.011Z,6.20
2023-10-09T06:55:53.584Z,6.40
2023-10-09T06:58:24.521Z,6.80
2023-10-09T07:01:13.720Z,7.50
2023-10-09T07:04:01.034Z,6.70
2023-10-09T07:06:36.905Z,8.60
2023-10-09T07:09:07.167Z,7.20
2023-10-09T07:11:41.112Z,7.80
2023-10-09T07:14:31.273Z,6.60
2023-10-09T07:17:02.286Z,7.90
2023-10-09T07:19:36.373Z,6.40
2023-10-09T07:22:17.383Z,7.40
2023-10-09T07:25:22.882Z,6.20
2023-10-09T07:27:55.082Z,7.20
2023-10-09T07:30:31.298Z,7.70
2023-10-09T07:33:12.082Z,7.90
2023-10-09T07:35:43.916Z,8.00
2023-10-09T07:38:20.662Z,6.90
2023-10-09T07:41:21.280Z,6.60
2023-10-09T07:43:52.037Z,7.00
2023-10-09T07:46:53.450Z,7.10
2023-10-09T07:49:26.715Z,7.20
2023-10-09T07:51:59.956Z,6.60
2023-10-09T07:54:37.477Z,6.30
2023-10-09T07:57:10.396Z,6.80
2023-10-09T07:59:42.482Z,6.60
2023-10-09T08:02:14.822Z,6.10
2023-10-09T08:04:51.069Z,7.30
2023-10-09T08:08:04.269Z,7.40
2023-10-09T08:10:15.503Z,7.20
2023-10-09T08:12:51.968Z,9.20
2023-10-09T08:15:23.214Z,7.90
2023-10-09T08:17:55.326Z,7.80
2023-10-09T08:20:26.631Z,6.80
2023-10-09T08:22:57.581Z,7.50
2023-10-09T08:25:33.084Z,8.00
2023-10-09T08:28:23.395Z,7.00
2023-10-09T08:30:56.073Z,7.50
2023-10-09T08:36:06.495Z,7.60
2023-10-09T08:38:43.388Z,7.50
2023-10-09T08:41:18.719Z,7.40
2023-10-09T08:43:52.824Z,7.60
2023-10-09T08:46:28.640Z,7.00
2023-10-09T08:49:03.426Z,7.70
2023-10-09T08:51:36.499Z,7.30
2023-10-09T08:54:13.436Z,6.90
2023-10-09T08:56:52.947Z,7.40
2023-10-09T08:59:25.800Z,6.90
2023-10-09T09:01:59.770Z,6.70
2023-10-09T09:04:42.529Z,7.70
2023-10-09T09:07:30.051Z,8.20
2023-10-09T09:10:20.800Z,7.30
2023-10-09T09:12:54.868Z,7.20
2023-10-09T09:15:28.132Z,8.00
2023-10-09T09:18:18.756Z,6.60
2023-10-09T09:20:51.022Z,6.40
2023-10-09T09:23:25.019Z,7.80
2023-10-09T09:26:11.305Z,7.70
2023-10-09T09:28:56.581Z,7.80
2023-10-09T09:31:29.154Z,7.60
2023-10-09T09:34:03.256Z,7.80
2023-10-09T09:36:36.805Z,8.40
2023-10-09T09:39:20.426Z,8.00
2023-10-09T09:41:53.257Z,7.30
2023-10-09T09:44:27.184Z,7.20
2023-10-09T09:47:00.687Z,8.10
2023-10-09T09:49:34.418Z,6.90
2023-10-09T09:52:11.228Z,7.70
2023-10-09T09:54:41.815Z,7.60
2023-10-09T09:57:14.445Z,6.90
2023-10-09T09:59:51.328Z,6.40
2023-10-09T10:02:30.186Z,7.10
2023-10-09T10:05:04.663Z,7.50
2023-10-09T10:07:44.471Z,6.50
2023-10-09T10:10:40.215Z,6.70
2023-10-09T10:13:16.292Z,6.60
2023-10-09T10:16:21.487Z,6.80
2023-10-09T10:19:08.335Z,7.40
2023-10-09T10:21:42.956Z,7.40
2023-10-09T10:24:58.970Z,7.00
2023-10-09T10:27:34.386Z,6.50
2023-10-09T10:30:34.708Z,6.40
2023-10-09T10:33:17.440Z,6.10
2023-10-09T10:35:53.735Z,6.80
2023-10-09T10:38:34.025Z,6.70
2023-10-09T10:41:17.839Z,6.60
2023-10-09T10:43:54.530Z,7.10
2023-10-09T10:46:25.948Z,6.90
2023-10-09T10:49:15.520Z,6.20
2023-10-09T10:51:54.237Z,6.90
2023-10-09T10:54:34.740Z,7.30
2023-10-09T10:57:20.929Z,8.20
2023-10-09T10:59:51.350Z,7.00
2023-10-09T11:02:29.383Z,6.90
2023-10-09T11:05:16.293Z,7.60
2023-10-09T11:07:46.140Z,6.90
2023-10-09T11:10:28.383Z,7.30
2023-10-09T11:13:10.507Z,6.80
2023-10-09T11:15:48.085Z,6.90
2023-10-09T11:18:21.453Z,6.40
2023-10-09T11:21:05.743Z,7.10
2023-10-09T11:23:40.509Z,6.50
2023-10-09T11:26:27.601Z,7.20
2023-10-09T11:29:16.694Z,6.70
2023-10-09T11:32:01.242Z,8.40
2023-10-09T11:34:32.861Z,7.00
2023-10-09T11:37:05.913Z,7.10
2023-10-09T11:39:38.286Z,7.30
2023-10-09T11:42:09.300Z,7.30
2023-10-09T11:44:56.446Z,6.60
2023-10-09T11:47:37.023Z,8.00
2023-10-09T11:50:18.388Z,7.10
2023-10-09T11:53:10.269Z,7.10
2023-10-09T11:55:43.010Z,7.80
2023-10-09T11:58:13.021Z,7.60
2023-10-09T12:00:47.289Z,7.00
2023-10-09T12:03:18.209Z,7.50
2023-10-09T12:05:48.201Z,7.00
2023-10-09T12:08:18.117Z,6.60
2023-10-09T12:10:49.354Z,6.70
2023-10-09T12:13:19.464Z,6.20
2023-10-09T12:15:49.261Z,6.20
2023-10-09T12:18:21.153Z,6.50
2023-10-09T12:23:24.348Z,6.40
2023-10-09T12:25:57.790Z,5.90
2023-10-09T12:28:28.127Z,6.80
2023-10-09T12:31:04.422Z,5.90
2023-10-09T12:33:34.419Z,6.20
2023-10-09T12:36:06.769Z,5.90
2023-10-09T12:38:36.722Z,6.70
2023-10-09T12:41:26.422Z,6.20
2023-10-09T12:44:01.909Z,6.40
2023-10-09T12:46:39.142Z,7.30
2023-10-09T12:49:09.703Z,7.70
2023-10-09T12:51:41.567Z,7.40
2023-10-09T12:54:11.792Z,7.40
2023-10-09T12:56:41.828Z,7.00
2023-10-09T12:59:16.648Z,8.00
2023-10-09T13:01:46.852Z,7.90
2023-10-09T13:04:17.512Z,7.90
2023-10-09T13:06:47.930Z,7.40
2023-10-09T13:09:37.524Z,6.70
2023-10-09T13:12:09.077Z,8.70
2023-10-09T13:14:42.666Z,7.60
2023-10-09T13:17:12.713Z,7.70
2023-10-09T13:19:45.446Z,7.90
2023-10-09T13:22:15.437Z,8.20
2023-10-09T13:24:49.798Z,8.30
2023-10-09T13:27:22.880Z,7.70
2023-10-09T13:29:53.662Z,6.70
2023-10-09T13:32:23.810Z,8.60
2023-10-09T13:34:56.898Z,8.20
2023-10-09T13:37:28.622Z,8.10
2023-10-09T13:39:58.763Z,7.90
2023-10-09T13:42:28.659Z,8.10
2023-10-09T13:44:58.790Z,8.50
2023-10-09T13:47:33.030Z,8.00
2023-10-09T13:50:03.361Z,8.80
2023-10-09T13:52:33.402Z,8.70
2023-10-09T13:55:17.946Z,10.50
2023-10-09T13:57:48.140Z,8.60
2023-10-09T14:00:33.892Z,8.40
2023-10-09T14:03:13.219Z,9.00
2023-10-09T14:06:06.418Z,9.10
2023-10-09T14:08:36.732Z,7.80
2023-10-09T14:11:06.839Z,8.10
2023-10-09T14:13:36.725Z,8.50
2023-10-09T14:16:09.695Z,9.00
2023-10-09T14:18:41.890Z,8.50
2023-10-09T14:21:17.565Z,7.80
2023-10-09T14:23:49.629Z,7.80
2023-10-09T14:26:19.991Z,8.90
2023-10-09T14:28:51.200Z,8.10
2023-10-09T14:31:28.357Z,8.40
2023-10-09T14:33:58.945Z,8.50
2023-10-09T14:36:36.375Z,8.90
2023-10-09T14:39:07.112Z,8.60
2023-10-09T14:41:37.000Z,8.30
2023-10-09T14:44:07.557Z,7.70
2023-10-09T14:46:37.694Z,9.40
2023-10-09T14:49:07.556Z,9.50
2023-10-09T14:51:37.808Z,9.30
2023-10-09T14:54:09.190Z,8.90
2023-10-09T14:56:39.067Z,8.90
2023-10-09T14:59:09.179Z,8.50
2023-10-09T15:01:39.230Z,8.00
2023-10-09T15:04:16.329Z,8.30
2023-10-09T15:06:49.578Z,8.20
2023-10-09T15:09:29.393Z,7.80
2023-10-09T15:11:59.722Z,7.50
2023-10-09T15:14:29.539Z,7.80
2023-10-09T15:16:59.580Z,8.20
2023-10-09T15:19:32.381Z,9.70
2023-10-09T15:22:09.731Z,8.30
2023-10-09T15:24:42.110Z,8.20
2023-10-09T15:27:14.578Z,8.60
2023-10-09T15:29:46.536Z,9.00
2023-10-09T15:32:23.836Z,8.50
2023-10-09T15:34:58.121Z,7.80
2023-10-09T15:37:28.285Z,7.90
2023-10-09T15:39:58.496Z,8.50
2023-10-09T15:42:30.647Z,8.50
2023-10-09T15:45:01.637Z,8.70
2023-10-09T15:47:31.767Z,7.70
2023-10-09T15:50:01.558Z,6.70
2023-10-09T15:52:31.685Z,6.90
2023-10-09T15:55:02.112Z,7.00
2023-10-09T15:57:33.289Z,6.80
2023-10-09T16:00:14.665Z,7.30
2023-10-09T16:02:44.813Z,7.70
2023-10-09T16:05:14.984Z,7.50
2023-10-09T16:07:47.240Z,7.90
2023-10-09T16:10:19.240Z,7.00
2023-10-09T16:12:49.312Z,7.80
2023-10-09T16:15:20.204Z,7.30
2023-10-09T16:17:59.919Z,7.80
2023-10-09T16:20:32.971Z,8.90
2023-10-09T16:23:05.719Z,8.10
2023-10-09T16:25:35.974Z,7.90
2023-10-09T16:28:06.775Z,7.70
2023-10-09T16:30:37.205Z,8.30
2023-10-09T16:33:07.215Z,8.50
2023-10-09T16:35:38.972Z,8.60
2023-10-09T16:38:13.695Z,8.30
2023-10-09T16:40:53.245Z,8.90
2023-10-09T16:43:28.912Z,8.80
2023-10-09T16:45:58.716Z,8.80
2023-10-09T16:48:29.268Z,9.90
2023-10-09T16:51:06.208Z,8.30
2023-10-09T16:53:41.158Z,9.60
2023-10-09T16:56:11.271Z,7.80
2023-10-09T16:58:43.951Z,8.80
2023-10-09T17:01:17.035Z,9.20
2023-10-09T17:03:48.802Z,8.30
2023-10-09T17:06:20.324Z,8.70
2023-10-09T17:08:52.178Z,9.40
2023-10-09T17:11:25.894Z,8.20
2023-10-09T17:13:58.907Z,9.80
2023-10-09T17:16:30.360Z,8.30
2023-10-09T17:19:04.019Z,8.40
2023-10-09T17:21:37.950Z,9.00
2023-10-09T17:24:12.294Z,10.10
2023-10-09T17:26:46.653Z,8.60
2023-10-09T17:29:18.172Z,8.80
2023-10-09T17:31:48.003Z,8.50
2023-10-09T17:34:19.161Z,9.50
2023-10-09T17:36:50.641Z,8.80
2023-10-09T17:39:27.388Z,8.50
2023-10-09T17:41:57.471Z,9.10
2023-10-09T17:44:29.848Z,8.80
2023-10-09T17:47:01.111Z,8.80
2023-10-09T17:49:32.369Z,8.70
2023-10-09T17:52:02.380Z,9.00
2023-10-09T17:54:35.824Z,8.90
2023-10-09T17:57:05.741Z,9.80
2023-10-09T17:59:41.957Z,11.00
2023-10-09T18:02:12.234Z,10.40
2023-10-09T18:04:42.943Z,9.90
2023-10-09T18:07:14.892Z,10.10
2023-10-09T18:09:45.447Z,11.00
2023-10-09T18:12:15.965Z,9.60
2023-10-09T18:14:47.322Z,9.30
2023-10-09T18:17:20.937Z,9.70
2023-10-09T18:19:53.090Z,10.70
2023-10-09T18:22:25.320Z,9.90
2023-10-09T18:24:55.139Z,9.10
2023-10-09T18:27:28.857Z,9.70
2023-10-09T18:30:01.015Z,8.50
2023-10-09T18:32:32.115Z,8.40
2023-10-09T18:35:04.491Z,8.70
2023-10-09T18:37:34.273Z,7.90
2023-10-09T18:40:07.214Z,7.20
2023-10-09T18:42:38.695Z,8.90
2023-10-09T18:45:16.605Z,8.70
2023-10-09T18:47:47.092Z,9.30
2023-10-09T18:50:18.311Z,8.20
2023-10-09T18:52:48.309Z,8.40
2023-10-09T18:55:19.470Z,9.10
2023-10-09T18:57:49.553Z,8.90
2023-10-09T19:00:24.905Z,8.50
2023-10-09T19:02:54.839Z,9.60
2023-10-09T19:05:25.059Z,9.40
2023-10-09T19:07:55.111Z,8.30
2023-10-09T19:10:26.820Z,8.90
2023-10-09T19:12:56.587Z,8.50
2023-10-09T19:15:26.434Z,9.00
2023-10-09T19:17:56.701Z,9.00
2023-10-09T19:20:26.681Z,8.70
2023-10-09T19:22:56.495Z,9.10
2023-10-09T19:25:34.094Z,10.20
2023-10-09T19:28:08.609Z,8.90
2023-10-09T19:30:38.686Z,8.90
2023-10-09T19:33:12.748Z,8.30
2023-10-09T19:35:45.270Z,7.90
2023-10-09T19:38:15.308Z,7.90
2023-10-09T19:40:53.693Z,7.60
2023-10-09T19:43:25.946Z,8.80
2023-10-09T19:46:04.408Z,8.00
2023-10-09T19:48:38.763Z,8.40
2023-10-09T19:51:08.763Z,7.70
2023-10-09T19:53:38.505Z,8.70
2023-10-09T19:56:12.597Z,8.40
2023-10-09T20:01:14.491Z,7.10
2023-10-09T20:03:46.962Z,8.40
2023-10-09T20:06:17.110Z,6.90
2023-10-09T20:08:49.035Z,7.50
2023-10-09T20:11:19.161Z,7.50
2023-10-09T20:13:54.136Z,7.20
2023-10-09T20:16:28.021Z,7.20
2023-10-09T20:18:57.953Z,6.70
2023-10-09T20:21:27.981Z,7.40
2023-10-09T20:24:02.462Z,7.50
2023-10-09T20:26:34.415Z,8.60
2023-10-09T20:29:05.194Z,7.10
2023-10-09T20:31:38.540Z,7.50
2023-10-09T20:34:10.414Z,7.20
2023-10-09T20:36:46.904Z,8.00
2023-10-09T20:39:22.141Z,8.10
2023-10-09T20:41:51.962Z,8.20
2023-10-09T20:44:21.765Z,7.30
2023-10-09T20:46:55.922Z,8.00
2023-10-09T20:49:27.922Z,7.00
2023-10-09T20:51:58.186Z,7.30
2023-10-09T20:54:28.420Z,7.70
2023-10-09T20:56:58.473Z,8.00
2023-10-09T20:59:28.386Z,6.90
2023-10-09T21:01:58.164Z,6.70
2023-10-09T21:04:28.163Z,7.60
2023-10-09T21:07:00.145Z,7.80
2023-10-09T21:09:30.092Z,7.30
2023-10-09T21:12:00.515Z,7.30
2023-10-09T21:14:30.316Z,7.50
2023-10-09T21:17:02.258Z,8.50
2023-10-09T21:19:34.208Z,7.40
2023-10-09T21:22:04.504Z,7.20
2023-10-09T21:24:34.940Z,7.10
2023-10-09T21:27:07.540Z,6.70
2023-10-09T21:29:37.497Z,7.50
2023-10-09T21:32:08.358Z,7.40
2023-10-09T21:34:38.511Z,7.90
2023-10-09T21:37:10.752Z,8.10
2023-10-09T21:39:40.566Z,7.40
2023-10-09T21:42:10.404Z,6.80
2023-10-09T21:44:40.828Z,8.00
2023-10-09T21:47:12.985Z,6.90
2023-10-09T21:49:45.262Z,6.80
2023-10-09T21:52:15.129Z,7.40
2023-10-09T21:54:44.883Z,7.20
2023-10-09T21:57:15.875Z,7.20
2023-10-09T21:59:47.691Z,6.80
2023-10-09T22:02:19.305Z,7.20
2023-10-09T22:04:51.958Z,7.60
2023-10-09T22:07:32.227Z,7.00
2023-10-09T22:10:06.819Z,8.20
2023-10-09T22:12:40.448Z,7.60
2023-10-09T22:15:15.619Z,7.20
2023-10-09T22:17:46.376Z,6.50
2023-10-09T22:20:21.045Z,7.10
2023-10-09T22:22:57.888Z,7.40
2023-10-09T22:25:31.200Z,8.00
2023-10-09T22:28:03.384Z,8.50
2023-10-09T22:30:34.976Z,8.70
2023-10-09T22:33:06.427Z,7.60
2023-10-09T22:35:46.069Z,6.40
2023-10-09T22:38:21.820Z,7.20
2023-10-09T22:40:52.823Z,7.40
2023-10-09T22:43:25.419Z,8.00
2023-10-09T22:45:57.863Z,7.70
2023-10-09T22:48:28.518Z,7.30
2023-10-09T22:51:10.908Z,6.70
2023-10-09T22:53:41.234Z,7.90
2023-10-09T22:56:17.427Z,7.00
2023-10-09T22:58:53.579Z,7.90
2023-10-09T23:01:28.030Z,7.30
2023-10-09T23:04:16.334Z,7.50
2023-10-09T23:06:46.479Z,7.30
2023-10-09T23:09:32.405Z,6.80
2023-10-09T23:12:08.619Z,7.10
2023-10-09T23:14:38.800Z,7.50
2023-10-09T23:17:08.897Z,8.30
2023-10-09T23:19:43.431Z,7.70
2023-10-09T23:25:09.682Z,8.30
2023-10-09T23:27:42.783Z,7.90
2023-10-09T23:30:35.003Z,7.20
2023-10-09T23:33:22.261Z,6.40
2023-10-09T23:38:57.651Z,7.10
2023-10-09T23:41:28.105Z,7.30
2023-10-09T23:43:57.838Z,7.20
2023-10-09T23:46:31.672Z,8.00
2023-10-09T23:49:01.474Z,7.30
2023-10-09T23:51:32.048Z,6.70
2023-10-09T23:54:11.441Z,7.20
2023-10-09T23:56:56.765Z,7.70
2023-10-09T23:59:39.626Z,7.30
